createdAt,value
2017-09-04T00:01:05.882Z,82.96
2017-09-04T00:03:33.469Z,83.89
2017-09-04T00:06:00.919Z,83.25
2017-09-04T00:08:28.480Z,83.76
2017-09-04T00:10:55.935Z,84.61
2017-09-04T00:13:23.395Z,83.94
2017-09-04T00:15:51.145Z,83.87
2017-09-04T00:18:18.629Z,83.52
2017-09-04T00:20:46.105Z,82.72
2017-09-04T00:23:13.591Z,82.84
2017-09-04T00:25:41.022Z,82.87
2017-09-04T00:28:08.492Z,83.46
2017-09-04T00:30:35.934Z,83.85
2017-09-04T00:33:03.465Z,84.55
2017-09-04T00:35:31.022Z,84.37
2017-09-04T00:37:58.478Z,83.61
2017-09-04T00:40:25.914Z,83.98
2017-09-04T00:42:53.395Z,83.21
2017-09-04T00:45:20.833Z,84.22
2017-09-04T00:47:48.396Z,84.05
2017-09-04T00:50:15.943Z,83.84
2017-09-04T00:52:43.388Z,83.20
2017-09-04T00:55:10.995Z,82.90
2017-09-04T00:57:38.434Z,83.53
2017-09-04T01:00:05.906Z,83.42
2017-09-04T01:02:33.342Z,84.10
2017-09-04T01:05:00.888Z,85.43
2017-09-04T01:07:28.341Z,84.77
2017-09-04T01:09:55.799Z,84.50
2017-09-04T01:12:23.235Z,84.54
2017-09-04T01:14:50.756Z,85.31
2017-09-04T01:17:18.202Z,85.76
2017-09-04T01:19:46.432Z,85.15
2017-09-04T01:22:13.869Z,85.63
2017-09-04T01:24:41.345Z,84.83
2017-09-04T01:27:08.786Z,85.48
2017-09-04T01:29:36.253Z,84.95
2017-09-04T01:32:03.702Z,85.03
2017-09-04T01:34:31.277Z,85.28
2017-09-04T01:36:58.718Z,85.78
2017-09-04T01:39:26.183Z,86.12
2017-09-04T01:41:53.629Z,85.22
2017-09-04T01:44:21.105Z,84.82
2017-09-04T01:46:48.610Z,84.70
2017-09-04T01:49:16.082Z,84.30
2017-09-04T01:51:43.522Z,84.86
2017-09-04T01:54:10.994Z,85.38
2017-09-04T01:56:38.450Z,85.27
2017-09-04T01:59:05.923Z,85.66
2017-09-04T02:01:33.388Z,85.44
2017-09-04T02:04:00.854Z,85.49
2017-09-04T02:06:28.318Z,86.26
2017-09-04T02:08:55.769Z,85.05
2017-09-04T02:11:23.253Z,84.59
2017-09-04T02:13:50.708Z,84.11
2017-09-04T02:16:18.179Z,84.37
2017-09-04T02:18:45.693Z,83.72
2017-09-04T02:21:13.298Z,84.19
2017-09-04T02:23:40.760Z,84.87
2017-09-04T02:26:08.274Z,84.79
2017-09-04T02:28:35.729Z,84.49
2017-09-04T02:31:03.256Z,84.18
2017-09-04T02:33:30.689Z,84.06
2017-09-04T02:35:58.170Z,84.85
2017-09-04T02:38:25.664Z,84.90
2017-09-04T02:40:53.123Z,85.52
2017-09-04T02:43:20.566Z,84.66
2017-09-04T02:45:48.149Z,84.43
2017-09-04T02:48:15.596Z,84.90
2017-09-04T02:50:43.081Z,85.31
2017-09-04T02:53:10.542Z,86.36
2017-09-04T02:55:38.029Z,85.92
2017-09-04T02:58:05.561Z,85.81
2017-09-04T03:00:33.085Z,85.17
2017-09-04T03:03:00.527Z,85.10
2017-09-04T03:05:28.089Z,85.33
2017-09-04T03:07:55.546Z,85.48
2017-09-04T03:10:23.006Z,85.31
2017-09-04T03:12:50.456Z,84.93
2017-09-04T03:15:17.922Z,85.02
2017-09-04T03:17:45.379Z,85.45
2017-09-04T03:20:12.827Z,86.66
2017-09-04T03:22:40.291Z,87.46
2017-09-04T03:25:07.740Z,85.91
2017-09-04T03:27:35.503Z,85.89
2017-09-04T03:30:02.985Z,85.21
2017-09-04T03:32:30.452Z,84.91
2017-09-04T03:34:57.989Z,85.24
2017-09-04T03:37:25.446Z,85.10
2017-09-04T03:39:52.878Z,83.96
2017-09-04T03:42:20.373Z,85.08
2017-09-04T03:44:47.806Z,85.22
2017-09-04T03:47:15.262Z,85.26
2017-09-04T03:49:42.697Z,85.95
2017-09-04T03:52:10.164Z,86.01
2017-09-04T03:54:37.598Z,85.67
2017-09-04T03:57:05.091Z,85.12
2017-09-04T03:59:32.531Z,85.18
2017-09-04T04:02:00.005Z,85.02
2017-09-04T04:04:27.441Z,85.03
2017-09-04T04:06:54.902Z,85.37
2017-09-04T04:09:22.374Z,85.07
2017-09-04T04:11:49.932Z,84.76
2017-09-04T04:14:17.383Z,85.17
2017-09-04T04:16:44.947Z,85.35
2017-09-04T04:19:12.400Z,86.11
2017-09-04T04:21:39.963Z,85.50
2017-09-04T04:24:07.518Z,85.91
2017-09-04T04:26:35.002Z,85.84
2017-09-04T04:29:02.439Z,85.99
2017-09-04T04:31:29.997Z,85.67
2017-09-04T04:33:57.505Z,85.49
2017-09-04T04:36:24.974Z,85.18
2017-09-04T04:38:52.477Z,85.56
2017-09-04T04:41:19.937Z,85.43
2017-09-04T04:43:47.788Z,85.65
2017-09-04T04:46:15.347Z,85.77
2017-09-04T04:48:42.902Z,85.53
2017-09-04T04:51:10.330Z,85.79
2017-09-04T04:53:37.823Z,85.89
2017-09-04T04:56:05.380Z,85.95
2017-09-04T04:58:32.843Z,85.68
2017-09-04T05:01:00.399Z,85.05
2017-09-04T05:03:27.887Z,85.88
2017-09-04T05:05:55.402Z,85.51
2017-09-04T05:08:22.882Z,85.51
2017-09-04T05:10:50.335Z,85.58
2017-09-04T05:13:17.799Z,85.72
2017-09-04T05:15:45.332Z,85.50
2017-09-04T05:18:12.890Z,85.50
2017-09-04T05:20:40.366Z,84.14
2017-09-04T05:23:07.851Z,83.36
2017-09-04T05:25:35.298Z,82.95
2017-09-04T05:28:02.830Z,83.47
2017-09-04T05:30:30.301Z,83.79
2017-09-04T05:32:57.769Z,84.46
2017-09-04T05:35:25.434Z,84.21
2017-09-04T05:37:52.901Z,83.32
2017-09-04T05:40:20.405Z,82.21
2017-09-04T05:42:47.891Z,81.22
2017-09-04T05:45:15.367Z,79.68
2017-09-04T05:47:43.243Z,79.97
2017-09-04T05:50:10.739Z,78.85
2017-09-04T05:52:39.022Z,80.28
2017-09-04T05:55:06.498Z,80.64
2017-09-04T05:57:34.049Z,81.40
2017-09-04T06:00:01.549Z,81.49
2017-09-04T06:02:28.990Z,82.33
2017-09-04T06:04:56.441Z,82.10
2017-09-04T06:07:23.897Z,82.35
2017-09-04T06:09:51.361Z,82.47
2017-09-04T06:12:18.803Z,82.67
2017-09-04T06:14:46.265Z,82.28
2017-09-04T06:17:13.794Z,83.23
2017-09-04T06:19:41.256Z,82.34
2017-09-04T06:22:08.828Z,82.55
2017-09-04T06:24:36.297Z,82.44
2017-09-04T06:27:03.737Z,82.62
2017-09-04T06:29:31.249Z,82.55
2017-09-04T06:31:58.735Z,81.66
2017-09-04T06:34:26.230Z,81.77
2017-09-04T06:36:53.713Z,82.21
2017-09-04T06:39:21.520Z,82.99
2017-09-04T06:41:48.980Z,82.48
2017-09-04T06:44:16.449Z,82.84
2017-09-04T06:46:43.991Z,82.45
2017-09-04T06:49:11.541Z,82.32
2017-09-04T06:51:38.987Z,82.20
2017-09-04T06:54:06.518Z,81.22
2017-09-04T06:56:33.989Z,81.02
2017-09-04T06:59:01.458Z,80.82
2017-09-04T07:01:28.897Z,80.56
2017-09-04T07:03:56.338Z,80.87
2017-09-04T07:06:23.804Z,81.20
2017-09-04T07:08:51.263Z,81.13
2017-09-04T07:11:18.726Z,80.44
2017-09-04T07:13:46.209Z,80.97
2017-09-04T07:16:13.765Z,81.01
2017-09-04T07:18:41.690Z,80.58
2017-09-04T07:21:09.263Z,81.23
2017-09-04T07:23:36.754Z,80.05
2017-09-04T07:26:04.226Z,79.35
2017-09-04T07:28:31.678Z,79.34
2017-09-04T07:30:59.149Z,79.30
2017-09-04T07:33:26.690Z,79.44
2017-09-04T07:35:54.170Z,78.52
2017-09-04T07:38:21.639Z,77.59
2017-09-04T07:40:49.148Z,77.07
2017-09-04T07:43:16.606Z,74.48
2017-09-04T07:45:44.087Z,77.04
2017-09-04T07:48:11.534Z,77.94
2017-09-04T07:50:39.001Z,77.82
2017-09-04T07:53:06.446Z,77.37
2017-09-04T07:55:33.952Z,76.88
2017-09-04T07:58:01.408Z,77.56
2017-09-04T08:00:28.866Z,77.73
2017-09-04T08:02:56.336Z,74.81
2017-09-04T08:05:23.824Z,76.15
2017-09-04T08:07:51.289Z,74.04
2017-09-04T08:10:18.840Z,74.83
2017-09-04T08:12:46.322Z,76.17
2017-09-04T08:15:13.799Z,75.78
2017-09-04T08:17:41.265Z,76.26
2017-09-04T08:20:08.725Z,74.95
2017-09-04T08:22:36.193Z,76.19
2017-09-04T08:25:03.634Z,75.89
2017-09-04T08:27:31.097Z,75.71
2017-09-04T08:29:58.570Z,74.39
2017-09-04T08:32:26.062Z,74.88
2017-09-04T08:34:53.626Z,75.88
2017-09-04T08:37:21.098Z,75.06
2017-09-04T08:39:48.538Z,74.38
2017-09-04T08:42:16.084Z,74.99
2017-09-04T08:44:43.543Z,75.38
2017-09-04T08:47:11.025Z,74.29
2017-09-04T08:49:38.475Z,73.72
2017-09-04T08:52:06.087Z,73.94
2017-09-04T08:54:33.545Z,74.30
2017-09-04T08:57:01.027Z,73.16
2017-09-04T08:59:28.498Z,70.75
2017-09-04T09:01:55.952Z,70.96
2017-09-04T09:04:23.427Z,71.18
2017-09-04T09:06:50.946Z,71.41
2017-09-04T09:09:18.419Z,71.61
2017-09-04T09:11:45.968Z,71.13
2017-09-04T09:14:13.451Z,69.36
2017-09-04T09:16:40.909Z,67.90
2017-09-04T09:19:08.434Z,68.68
2017-09-04T09:21:35.883Z,68.95
2017-09-04T09:24:03.361Z,68.32
2017-09-04T09:26:30.847Z,66.41
2017-09-04T09:28:58.319Z,67.21
2017-09-04T09:31:25.767Z,67.35
2017-09-04T09:33:53.242Z,66.45
2017-09-04T09:36:20.697Z,66.68
2017-09-04T09:38:48.158Z,65.91
2017-09-04T09:41:15.751Z,67.41
2017-09-04T09:43:43.343Z,65.89
2017-09-04T09:46:10.890Z,65.90
2017-09-04T09:48:38.358Z,65.75
2017-09-04T09:51:05.830Z,65.18
2017-09-04T09:53:33.269Z,64.83
2017-09-04T09:56:00.767Z,65.01
2017-09-04T09:58:28.206Z,64.75
2017-09-04T10:00:55.688Z,64.66
2017-09-04T10:03:23.537Z,64.62
2017-09-04T10:05:51.007Z,64.68
2017-09-04T10:08:18.451Z,64.98
2017-09-04T10:10:45.926Z,64.56
2017-09-04T10:13:13.425Z,63.12
2017-09-04T10:15:40.927Z,64.04
2017-09-04T10:18:08.391Z,63.41
2017-09-04T10:20:35.870Z,61.87
2017-09-04T10:23:03.311Z,61.06
2017-09-04T10:25:30.810Z,61.11
2017-09-04T10:27:58.266Z,61.93
2017-09-04T10:30:25.755Z,61.25
2017-09-04T10:32:53.205Z,61.36
2017-09-04T10:35:20.670Z,61.61
2017-09-04T10:37:48.127Z,61.81
2017-09-04T10:40:15.614Z,61.17
2017-09-04T10:42:43.075Z,60.71
2017-09-04T10:45:10.564Z,60.76
2017-09-04T10:47:38.010Z,61.47
2017-09-04T10:50:05.473Z,60.24
2017-09-04T10:52:32.927Z,59.23
2017-09-04T10:55:00.435Z,59.18
2017-09-04T10:57:27.875Z,60.79
2017-09-04T10:59:55.342Z,60.60
2017-09-04T11:02:22.817Z,60.82
2017-09-04T11:04:50.290Z,60.66
2017-09-04T11:07:17.754Z,59.33
2017-09-04T11:09:45.742Z,59.81
2017-09-04T11:12:13.214Z,59.39
2017-09-04T11:14:40.683Z,58.71
2017-09-04T11:17:08.154Z,59.36
2017-09-04T11:19:35.609Z,59.50
2017-09-04T11:22:03.417Z,58.96
2017-09-04T11:24:30.890Z,56.78
2017-09-04T11:26:58.353Z,58.56
2017-09-04T11:29:25.785Z,57.83
2017-09-04T11:31:53.260Z,57.62
2017-09-04T11:34:21.002Z,57.19
2017-09-04T11:36:48.499Z,55.67
2017-09-04T11:39:16.011Z,55.53
2017-09-04T11:41:43.578Z,54.38
2017-09-04T11:44:11.021Z,56.56
2017-09-04T11:46:38.494Z,57.98
2017-09-04T11:49:05.962Z,56.17
2017-09-04T11:51:33.431Z,55.91
2017-09-04T11:54:00.896Z,56.39
2017-09-04T11:56:28.364Z,56.76
2017-09-04T11:58:55.830Z,56.42
2017-09-04T12:01:23.353Z,56.09
2017-09-04T12:03:50.941Z,58.04
2017-09-04T12:06:19.437Z,57.53
2017-09-04T12:08:46.910Z,57.22
2017-09-04T12:11:14.350Z,55.22
2017-09-04T12:13:41.816Z,55.50
2017-09-04T12:16:09.255Z,56.58
2017-09-04T12:18:36.717Z,54.81
2017-09-04T12:21:04.149Z,54.90
2017-09-04T12:23:31.623Z,55.54
2017-09-04T12:25:59.344Z,56.65
2017-09-04T12:28:26.858Z,55.59
2017-09-04T12:30:54.382Z,56.79
2017-09-04T12:33:21.850Z,54.01
2017-09-04T12:35:49.350Z,54.45
2017-09-04T12:38:16.945Z,54.09
2017-09-04T12:40:44.397Z,55.59
2017-09-04T12:43:11.892Z,56.15
2017-09-04T12:45:39.342Z,55.12
2017-09-04T12:48:06.824Z,54.29
2017-09-04T12:50:34.358Z,58.49
2017-09-04T12:53:01.799Z,55.23
2017-09-04T12:55:29.288Z,55.28
2017-09-04T12:57:56.743Z,57.28
2017-09-04T13:00:24.217Z,59.03
2017-09-04T13:02:51.658Z,56.30
2017-09-04T13:05:19.124Z,56.92
2017-09-04T13:07:46.565Z,56.03
2017-09-04T13:13:21.517Z,58.11
2017-09-04T13:15:54.586Z,58.17
2017-09-04T13:18:27.593Z,57.47
2017-09-04T13:21:00.798Z,58.34
2017-09-04T13:23:33.947Z,59.04
2017-09-04T13:26:22.351Z,57.29
2017-09-04T13:28:55.547Z,58.24
2017-09-04T13:31:28.487Z,57.42
2017-09-04T13:37:07.196Z,56.46
2017-09-04T13:39:51.809Z,56.86
2017-09-04T13:42:24.842Z,56.98
2017-09-04T13:44:57.990Z,57.50
2017-09-04T13:47:35.358Z,56.54
2017-09-04T13:50:05.037Z,57.37
2017-09-04T13:55:48.894Z,56.90
2017-09-04T14:01:35.938Z,57.23
2017-09-04T14:04:08.895Z,58.15
2017-09-04T14:06:42.110Z,56.67
2017-09-04T14:09:15.146Z,57.30
2017-09-04T14:11:48.097Z,57.37
2017-09-04T14:14:21.240Z,57.39
2017-09-04T14:16:51.205Z,57.88
2017-09-04T14:19:18.639Z,56.72
2017-09-04T14:21:46.074Z,56.47
2017-09-04T14:24:13.534Z,55.55
2017-09-04T14:26:40.978Z,56.07
2017-09-04T14:29:08.430Z,57.62
2017-09-04T14:31:35.877Z,56.05
2017-09-04T14:34:03.350Z,55.52
2017-09-04T14:36:30.793Z,55.23
2017-09-04T14:38:58.264Z,56.25
2017-09-04T14:41:25.710Z,58.01
2017-09-04T14:43:59.799Z,57.59
2017-09-04T14:46:38.099Z,57.83
2017-09-04T14:49:05.566Z,57.72
2017-09-04T14:51:33.015Z,57.34
2017-09-04T14:54:00.483Z,58.35
2017-09-04T14:56:28.346Z,54.89
2017-09-04T14:58:55.807Z,53.81
2017-09-04T15:01:23.283Z,53.07
2017-09-04T15:03:50.826Z,54.89
2017-09-04T15:06:18.269Z,53.87
2017-09-04T15:08:45.730Z,55.06
2017-09-04T15:11:13.166Z,55.76
2017-09-04T15:13:40.836Z,56.63
2017-09-04T15:16:08.312Z,53.58
2017-09-04T15:18:35.784Z,52.84
2017-09-04T15:21:03.230Z,51.37
2017-09-04T15:23:30.698Z,52.13
2017-09-04T15:25:58.160Z,52.28
2017-09-04T15:28:25.602Z,52.21
2017-09-04T15:30:53.058Z,52.91
2017-09-04T15:33:20.504Z,53.77
2017-09-04T15:35:47.968Z,53.74
2017-09-04T15:38:15.409Z,54.11
2017-09-04T15:40:42.967Z,52.05
2017-09-04T15:43:10.497Z,52.35
2017-09-04T15:45:38.113Z,52.76
2017-09-04T15:48:05.630Z,53.35
2017-09-04T15:50:33.200Z,54.24
2017-09-04T15:53:00.732Z,54.90
2017-09-04T15:55:28.215Z,55.70
2017-09-04T15:57:55.708Z,57.10
2017-09-04T16:00:23.172Z,55.25
2017-09-04T16:02:50.638Z,55.91
2017-09-04T16:05:18.103Z,55.81
2017-09-04T16:07:49.116Z,55.46
2017-09-04T16:10:16.581Z,56.71
2017-09-04T16:12:54.322Z,62.49
2017-09-04T16:15:21.827Z,64.29
2017-09-04T16:21:02.536Z,70.00
2017-09-04T16:23:39.903Z,71.02
2017-09-04T16:26:07.358Z,71.33
2017-09-04T16:28:35.588Z,71.86
2017-09-04T16:31:03.051Z,71.53
2017-09-04T16:33:30.500Z,71.50
2017-09-04T16:36:14.851Z,70.63
2017-09-04T16:38:43.139Z,72.75
2017-09-04T16:41:14.154Z,74.93
2017-09-04T16:46:47.073Z,74.48
2017-09-04T16:49:26.280Z,76.24
2017-09-04T16:51:59.308Z,75.87
2017-09-04T16:57:26.782Z,78.93
2017-09-04T16:59:54.239Z,79.54
2017-09-04T17:02:23.078Z,79.42
2017-09-04T17:04:50.846Z,80.25
2017-09-04T17:07:18.329Z,80.33
2017-09-04T17:09:48.882Z,80.55
2017-09-04T17:12:16.353Z,79.99
2017-09-04T17:14:43.817Z,79.74
2017-09-04T17:17:13.337Z,78.81
2017-09-04T17:19:46.402Z,78.05
2017-09-04T17:22:14.805Z,76.96
2017-09-04T17:24:42.740Z,78.55
2017-09-04T17:27:10.195Z,79.59
2017-09-04T17:29:37.666Z,78.97
2017-09-04T17:32:05.128Z,79.07
2017-09-04T17:34:32.591Z,79.03
2017-09-04T17:37:00.030Z,77.71
2017-09-04T17:39:27.518Z,77.30
2017-09-04T17:41:55.018Z,77.32
2017-09-04T17:44:22.473Z,78.29
2017-09-04T17:46:49.915Z,79.24
2017-09-04T17:49:17.373Z,77.84
2017-09-04T17:51:44.825Z,77.92
2017-09-04T17:54:12.284Z,76.51
2017-09-04T17:56:39.713Z,78.14
2017-09-04T17:59:07.179Z,77.90
2017-09-04T18:01:34.634Z,78.16
2017-09-04T18:04:02.103Z,79.25
2017-09-04T18:06:29.618Z,79.59
2017-09-04T18:08:57.079Z,81.39
2017-09-04T18:11:24.543Z,82.95
2017-09-04T18:13:52.025Z,83.06
2017-09-04T18:16:19.471Z,82.36
2017-09-04T18:18:46.959Z,83.07
2017-09-04T18:21:14.401Z,82.25
2017-09-04T18:23:41.863Z,80.79
2017-09-04T18:26:09.492Z,80.22
2017-09-04T18:28:36.988Z,79.58
2017-09-04T18:31:04.446Z,78.99
2017-09-04T18:33:32.616Z,78.98
2017-09-04T18:36:00.074Z,78.56
2017-09-04T18:38:27.514Z,78.97
2017-09-04T18:40:54.966Z,79.12
2017-09-04T18:43:22.406Z,79.11
2017-09-04T18:45:50.135Z,79.74
2017-09-04T18:48:17.575Z,80.00
2017-09-04T18:50:45.029Z,80.26
2017-09-04T18:53:12.462Z,80.02
2017-09-04T18:55:39.957Z,80.73
2017-09-04T18:58:07.389Z,79.93
2017-09-04T19:00:34.890Z,81.25
2017-09-04T19:03:02.418Z,81.70
2017-09-04T19:05:29.877Z,81.92
2017-09-04T19:07:57.329Z,81.52
2017-09-04T19:10:24.798Z,82.03
2017-09-04T19:12:52.338Z,81.05
2017-09-04T19:15:19.804Z,80.92
2017-09-04T19:17:47.251Z,81.11
2017-09-04T19:20:14.734Z,80.66
2017-09-04T19:22:42.179Z,79.43
2017-09-04T19:25:09.643Z,79.65
2017-09-04T19:27:37.106Z,80.06
2017-09-04T19:30:04.574Z,79.53
2017-09-04T19:32:32.005Z,80.12
2017-09-04T19:34:59.468Z,79.72
2017-09-04T19:37:26.925Z,80.25
2017-09-04T19:39:54.385Z,80.35
2017-09-04T19:42:21.817Z,80.22
2017-09-04T19:44:49.307Z,81.01
2017-09-04T19:47:16.763Z,81.64
2017-09-04T19:49:44.198Z,81.65
2017-09-04T19:52:11.658Z,82.62
2017-09-04T19:54:39.105Z,83.37
2017-09-04T19:57:06.573Z,82.35
2017-09-04T19:59:34.010Z,81.56
2017-09-04T20:02:01.507Z,81.08
2017-09-04T20:04:29.033Z,81.26
2017-09-04T20:06:56.544Z,81.26
2017-09-04T20:09:23.986Z,80.81
2017-09-04T20:11:51.481Z,80.75
2017-09-04T20:14:18.946Z,81.36
2017-09-04T20:16:46.511Z,82.01
2017-09-04T20:19:14.009Z,82.37
2017-09-04T20:21:41.470Z,83.07
2017-09-04T20:24:08.926Z,82.24
2017-09-04T20:26:36.386Z,82.55
2017-09-04T20:29:03.949Z,83.24
2017-09-04T20:31:31.527Z,82.52
2017-09-04T20:33:58.968Z,81.26
2017-09-04T20:36:26.506Z,80.84
2017-09-04T20:38:53.960Z,80.04
2017-09-04T20:41:21.470Z,80.78
2017-09-04T20:43:48.922Z,82.50
2017-09-04T20:46:16.459Z,81.99
2017-09-04T20:48:43.903Z,81.05
2017-09-04T20:51:11.375Z,80.74
2017-09-04T20:53:38.844Z,82.11
2017-09-04T20:56:06.394Z,82.55
2017-09-04T20:58:33.844Z,82.17
2017-09-04T21:01:01.309Z,81.38
2017-09-04T21:03:28.761Z,81.22
2017-09-04T21:05:56.250Z,80.87
2017-09-04T21:08:23.710Z,81.01
2017-09-04T21:10:51.146Z,81.07
2017-09-04T21:13:18.605Z,81.42
2017-09-04T21:15:46.049Z,80.59
2017-09-04T21:18:13.506Z,81.39
2017-09-04T21:20:40.949Z,81.88
2017-09-04T21:23:08.445Z,81.83
2017-09-04T21:25:35.910Z,83.57
2017-09-04T21:28:03.383Z,84.11
2017-09-04T21:30:30.819Z,83.04
2017-09-04T21:32:58.726Z,82.76
2017-09-04T21:35:26.167Z,83.44
2017-09-04T21:37:53.638Z,82.71
2017-09-04T21:40:21.074Z,82.94
2017-09-04T21:42:48.534Z,82.74
2017-09-04T21:45:15.974Z,83.73
2017-09-04T21:47:43.433Z,84.35
2017-09-04T21:50:10.883Z,83.93
2017-09-04T21:52:38.346Z,83.23
2017-09-04T21:55:05.806Z,82.78
2017-09-04T21:57:33.270Z,82.50
2017-09-04T22:00:00.723Z,82.09
2017-09-04T22:02:28.197Z,82.23
2017-09-04T22:04:55.686Z,82.02
2017-09-04T22:07:23.175Z,80.99
2017-09-04T22:09:50.619Z,81.17
2017-09-04T22:12:18.053Z,81.09
2017-09-04T22:14:45.509Z,81.11
2017-09-04T22:17:12.955Z,80.74
2017-09-04T22:19:40.449Z,79.71
2017-09-04T22:22:07.885Z,77.90
2017-09-04T22:24:35.353Z,78.52
2017-09-04T22:27:02.797Z,78.58
2017-09-04T22:29:30.273Z,78.79
2017-09-04T22:31:57.705Z,80.44
2017-09-04T22:34:25.199Z,80.33
2017-09-04T22:36:52.643Z,79.38
2017-09-04T22:39:20.125Z,81.29
2017-09-04T22:41:47.576Z,79.75
2017-09-04T22:44:15.038Z,80.97
2017-09-04T22:46:42.499Z,80.98
2017-09-04T22:49:09.960Z,82.48
2017-09-04T22:51:37.395Z,82.47
2017-09-04T22:54:04.862Z,84.70
2017-09-04T22:56:32.290Z,85.98
2017-09-04T22:59:01.122Z,86.68
2017-09-04T23:01:28.558Z,87.88
2017-09-04T23:03:56.027Z,88.10
2017-09-04T23:06:23.478Z,87.12
2017-09-04T23:08:50.937Z,87.48
2017-09-04T23:11:18.374Z,88.08
2017-09-04T23:13:45.848Z,87.49
2017-09-04T23:16:13.286Z,88.02
2017-09-04T23:18:40.768Z,87.71
2017-09-04T23:21:08.206Z,87.11
2017-09-04T23:23:35.689Z,85.95
2017-09-04T23:26:03.139Z,87.14
2017-09-04T23:28:36.282Z,88.46
2017-09-04T23:31:03.713Z,89.74
2017-09-04T23:33:31.182Z,90.34
2017-09-04T23:35:58.621Z,91.17
2017-09-04T23:38:26.108Z,90.85
2017-09-04T23:40:53.580Z,90.34
2017-09-04T23:43:21.039Z,91.44
2017-09-04T23:45:48.520Z,90.80
2017-09-04T23:48:15.971Z,90.35
2017-09-04T23:50:43.460Z,89.36
2017-09-04T23:53:10.910Z,89.17
2017-09-04T23:55:38.369Z,89.43
2017-09-04T23:58:05.801Z,89.66
